Map

Track Data

SID SEASON NUMBER BASIN SUBBASIN NAME ISO_TIME NATURE LAT LON WMO_WIND WMO_PRES WMO_AGENCY TRACK_TYPE DIST2LAND LANDFALL IFLAG USA_AGENCY USA_ATCF_ID USA_LAT USA_LON USA_RECORD USA_STATUS USA_WIND USA_PRES USA_SSHS USA_R34_NE USA_R34_SE USA_R34_SW USA_R34_NW USA_R50_NE USA_R50_SE USA_R50_SW USA_R50_NW USA_R64_NE USA_R64_SE USA_R64_SW USA_R64_NW USA_POCI USA_ROCI USA_RMW USA_EYE TOKYO_LAT TOKYO_LON TOKYO_GRADE TOKYO_WIND TOKYO_PRES TOKYO_R50_DIR TOKYO_R50_LONG TOKYO_R50_SHORT TOKYO_R30_DIR TOKYO_R30_LONG TOKYO_R30_SHORT TOKYO_LAND CMA_LAT CMA_LON CMA_CAT CMA_WIND CMA_PRES HKO_LAT HKO_LON HKO_CAT HKO_WIND HKO_PRES NEWDELHI_LAT NEWDELHI_LON NEWDELHI_GRADE NEWDELHI_WIND NEWDELHI_PRES NEWDELHI_CI NEWDELHI_DP NEWDELHI_POCI REUNION_LAT REUNION_LON REUNION_TYPE REUNION_WIND REUNION_PRES REUNION_TNUM REUNION_CI REUNION_RMW REUNION_R34_NE REUNION_R34_SE REUNION_R34_SW REUNION_R34_NW REUNION_R50_NE REUNION_R50_SE REUNION_R50_SW REUNION_R50_NW REUNION_R64_NE REUNION_R64_SE REUNION_R64_SW REUNION_R64_NW BOM_LAT BOM_LON BOM_TYPE BOM_WIND BOM_PRES BOM_TNUM BOM_CI BOM_RMW BOM_R34_NE BOM_R34_SE BOM_R34_SW BOM_R34_NW BOM_R50_NE BOM_R50_SE BOM_R50_SW BOM_R50_NW BOM_R64_NE BOM_R64_SE BOM_R64_SW BOM_R64_NW BOM_ROCI BOM_POCI BOM_EYE BOM_POS_METHOD BOM_PRES_METHOD NADI_LAT NADI_LON NADI_CAT NADI_WIND NADI_PRES WELLINGTON_LAT WELLINGTON_LON WELLINGTON_WIND WELLINGTON_PRES DS824_LAT DS824_LON DS824_STAGE DS824_WIND DS824_PRES TD9636_LAT TD9636_LON TD9636_STAGE TD9636_WIND TD9636_PRES TD9635_LAT TD9635_LON TD9635_WIND TD9635_PRES TD9635_ROCI NEUMANN_LAT NEUMANN_LON NEUMANN_CLASS NEUMANN_WIND NEUMANN_PRES MLC_LAT MLC_LON MLC_CLASS MLC_WIND MLC_PRES USA_GUST BOM_GUST BOM_GUST_PER REUNION_GUST REUNION_GUST_PER USA_SEAHGT USA_SEARAD_NE USA_SEARAD_SE USA_SEARAD_SW USA_SEARAD_NW STORM_SPEED STORM_DIR
1990124N09088 1990 27 NI BB NOT_NAMED 1990-05-03 12:00:00 NR 9.10000 88.1000 main 713 692 O_____________ jtwc_io IO021990 9.10000 88.1000 20 -1 4 285
1990124N09088 1990 27 NI BB NOT_NAMED 1990-05-03 15:00:00 NR 9.15755 87.8850 main 695 673 P_____________ IO021990 9.15755 87.8850 20 -1 4 284
1990124N09088 1990 27 NI BB NOT_NAMED 1990-05-03 18:00:00 NR 9.20000 87.7000 main 673 663 O_____________ jtwc_io IO021990 9.20000 87.7000 20 -1 3 280
1990124N09088 1990 27 NI BB NOT_NAMED 1990-05-03 21:00:00 NR 9.21496 87.5575 main 663 628 P_____________ IO021990 9.21496 87.5575 20 -1 4 250
1990124N09088 1990 27 NI BB NOT_NAMED 1990-05-04 00:00:00 NR 9.06000 87.3200 16 1006 newdelhi main 628 601 O___O_________ jtwc_io IO021990 9.20000 87.4000 20 -1 8.50000 87.0000 16 1006 1.00000 2 1006 6 234
1990124N09088 1990 27 NI BB NOT_NAMED 1990-05-04 03:00:00 NR 8.89169 87.1017 main 601 577 P___P_________ IO021990 9.15001 87.1650 20 -1 8.37504 86.9751 20 1004 3 1006 4 240
1990124N09088 1990 27 NI BB NOT_NAMED 1990-05-04 06:00:00 NR 8.84286 86.9429 25 1002 newdelhi main 577 577 O___O_________ jtwc_io IO021990 9.10000 86.9000 20 -1 8.50000 87.0000 25 1002 1.50000 4 1006 3 303
1990124N09088 1990 27 NI BB NOT_NAMED 1990-05-04 09:00:00 NR 9.04619 86.8625 main 583 572 P___P_________ IO021990 9.09248 86.6500 22 -1 8.99990 87.0749 25 1001 4 1005 5 332
1990124N09088 1990 27 NI BB NOT_NAMED 1990-05-04 12:00:00 NR 9.30000 86.7000 25 1000 newdelhi main 572 541 O___O_________ jtwc_io IO021990 9.10000 86.4000 25 -1 9.50000 87.0000 25 1000 1.50000 4 1004 6 297
1990124N09088 1990 27 NI BB NOT_NAMED 1990-05-04 15:00:00 NR 9.31138 86.3436 main 530 500 P___P_________ IO021990 9.08498 86.1500 25 -1 9.53777 86.5373 25 1001 4 1005 7 270
1990124N09088 1990 27 NI BB NOT_NAMED 1990-05-04 18:00:00 NR 9.30000 85.9500 25 1002 newdelhi main 500 474 O___O_________ jtwc_io IO021990 9.10000 85.9000 25 -1 9.50000 86.0000 25 1002 1.50000 4 1006 7 283
1990124N09088 1990 27 NI BB NOT_NAMED 1990-05-04 21:00:00 NR 9.45992 85.6850 main 479 464 P___P_________ IO021990 9.16997 85.6575 27 -1 9.74987 85.7126 27 1000 5 1005 6 305
1990124N09088 1990 27 NI BB NOT_NAMED 1990-05-05 00:00:00 NR 9.65000 85.4500 30 998 newdelhi main 469 439 O___O_________ jtwc_io IO021990 9.30000 85.4000 30 -1 10.0000 85.5000 30 998 2.00000 6 1004 6 300
1990124N09088 1990 27 NI BB NOT_NAMED 1990-05-05 03:00:00 NR 9.76127 85.1600 main 444 415 P___P_________ IO021990 9.49254 85.0851 32 -1 10.0300 85.2349 32 998 6 1005 6 290
1990124N09088 1990 27 NI BB NOT_NAMED 1990-05-05 06:00:00 NR 9.85000 84.9000 35 999 newdelhi main 419 409 O___O_________ jtwc_io IO021990 9.70000 84.8000 35 0 10.0000 85.0000 35 999 2.50000 7 1006 4 295
1990124N09088 1990 27 NI BB NOT_NAMED 1990-05-05 09:00:00 NR 9.94991 84.7537 main 409 394 P___P_________ IO021990 9.86494 84.6349 35 0 10.0349 84.8725 40 996 8 1005 4 304
1990124N09088 1990 27 NI BB NOT_NAMED 1990-05-05 12:00:00 NR 10.0500 84.6000 45 994 newdelhi main 399 376 O___O_________ jtwc_io IO021990 10.0000 84.5000 35 0 10.1000 84.7000 45 994 3.00000 10 1004 5 296
1990124N09088 1990 27 NI BB NOT_NAMED 1990-05-05 15:00:00 NR 10.1651 84.3150 main 376 349 P___P_________ IO021990 10.1225 84.3075 37 0 10.2076 84.3226 50 992 12 1005 6 289
1990124N09088 1990 27 NI BB NOT_NAMED 1990-05-05 18:00:00 NR 10.2500 84.0000 55 991 newdelhi main 355 327 O___O_________ jtwc_io IO021990 10.2000 84.1000 40 0 10.3000 83.9000 55 991 3.50000 15 1006 6 280
1990124N09088 1990 27 NI BB NOT_NAMED 1990-05-05 21:00:00 NR 10.2725 83.7237 main 327 309 P___P_________ IO021990 10.2075 83.9000 42 0 10.3375 83.5475 55 991 15 1006 5 270
1990124N09088 1990 27 NI BB NOT_NAMED 1990-05-06 00:00:00 NR 10.2500 83.5000 55 991 newdelhi main 309 294 O___O_________ jtwc_io IO021990 10.2000 83.7000 45 0 10.3000 83.3000 55 991 3.50000 15 1006 4 257
1990124N09088 1990 27 NI BB NOT_NAMED 1990-05-06 03:00:00 NR 10.1887 83.3600 main 294 278 P___P_________ IO021990 10.2425 83.4925 47 0 10.1349 83.2275 66 983 22 1006 3 248
1990124N09088 1990 27 NI BB NOT_NAMED 1990-05-06 06:00:00 NR 10.1500 83.2500 77 976 newdelhi main 285 267 O___O_________ jtwc_io IO021990 10.3000 83.3000 50 0 10.0000 83.2000 77 976 4.50000 29 1006 2 275
1990124N09088 1990 27 NI BB NOT_NAMED 1990-05-06 09:00:00 NR 10.2100 83.1113 main 267 265 P___P_________ IO021990 10.3500 83.1500 52 0 10.0700 83.0725 77 976 29 1005 3 297
1990124N09088 1990 27 NI BB NOT_NAMED 1990-05-06 12:00:00 NR 10.3000 82.9500 77 976 newdelhi main 265 246 O___O_________ jtwc_io IO021990 10.4000 83.0000 55 0 10.2000 82.9000 77 976 4.50000 29 1004 4 287
1990124N09088 1990 27 NI BB NOT_NAMED 1990-05-06 15:00:00 NR 10.3163 82.7462 main 236 226 P___P_________ IO021990 10.4425 82.8000 57 0 10.1900 82.6924 77 976 29 1005 4 284
1990124N09088 1990 27 NI BB NOT_NAMED 1990-05-06 18:00:00 NR 10.4000 82.5500 77 976 newdelhi main 232 223 O___O_________ jtwc_io IO021990 10.5000 82.6000 60 0 10.3000 82.5000 77 976 4.50000 29 1006 5 320
1990124N09088 1990 27 NI BB NOT_NAMED 1990-05-06 21:00:00 NR 10.6962 82.4213 main 235 235 P___P_________ IO021990 10.5850 82.4350 65 1 10.8075 82.4075 83 970 34 1005 7 338
1990124N09088 1990 27 NI BB NOT_NAMED 1990-05-07 00:00:00 NR 11.0000 82.3000 90 964 newdelhi main 251 240 O___O_________ jtwc_io IO021990 10.7000 82.3000 70 1 11.3000 82.3000 90 964 5.00000 40 1004 5 323
1990124N09088 1990 27 NI BB NOT_NAMED 1990-05-07 03:00:00 NR 11.0975 82.1137 main 240 229 P___P_________ IO021990 10.8275 82.1850 77 1 11.3676 82.0424 102 952 52 1005 4 294
1990124N09088 1990 27 NI BB NOT_NAMED 1990-05-07 06:00:00 NR 11.1500 81.9500 115 940 newdelhi main 229 218 O___O_________ jtwc_io IO021990 11.0000 82.1000 85 2 11.3000 81.8000 115 940 6.00000 65 1006 3 304
1990124N09088 1990 27 NI BB NOT_NAMED 1990-05-07 09:00:00 NR 11.2587 81.8737 main 218 218 P___P_________ IO021990 11.2350 82.0425 90 2 11.2825 81.7050 115 939 65 1005 3 343
1990124N09088 1990 27 NI BB NOT_NAMED 1990-05-07 12:00:00 NR 11.4500 81.8500 115 938 newdelhi main 216 195 O___O_________ jtwc_io IO021990 11.5000 82.0000 95 2 11.4000 81.7000 115 938 6.00000 65 1004 5 0
1990124N09088 1990 27 NI BB NOT_NAMED 1990-05-07 15:00:00 NR 11.7550 81.8462 main 190 179 P___P_________ IO021990 11.7275 81.9500 100 3 11.7825 81.7424 108 944 58 1003 7 0
1990124N09088 1990 27 NI BB NOT_NAMED 1990-05-07 18:00:00 NR 12.1500 81.8500 102 950 newdelhi main 187 173 O___O_________ jtwc_io IO021990 12.0000 81.9000 105 3 12.3000 81.8000 102 950 5.50000 51 1002 9 0
1990124N09088 1990 27 NI BB NOT_NAMED 1990-05-07 21:00:00 NR 12.6150 81.8475 main 173 165 P___P_________ IO021990 12.3850 81.8575 110 3 12.8450 81.8375 114 937 65 1003 9 357
1990124N09088 1990 27 NI BB NOT_NAMED 1990-05-08 00:00:00 NR 13.0500 81.8000 127 924 newdelhi main 164 151 O___O_________ jtwc_io IO021990 12.8000 81.8000 115 4 13.3000 81.8000 127 924 6.50000 80 1004 7 347
1990124N09088 1990 27 NI BB NOT_NAMED 1990-05-08 03:00:00 NR 13.3338 81.6687 main 151 129 P___P_________ IO021990 13.1650 81.7150 120 4 13.5025 81.6225 127 924 80 1004 6 330
1990124N09088 1990 27 NI BB NOT_NAMED 1990-05-08 06:00:00 NR 13.5500 81.5000 127 924 newdelhi main 129 118 O___O_________ jtwc_io IO021990 13.5000 81.6000 125 4 13.6000 81.4000 127 924 6.50000 80 1004 5 325
1990124N09088 1990 27 NI BB NOT_NAMED 1990-05-08 09:00:00 NR 13.7750 81.3462 main 108 97 P___P_________ IO021990 13.8225 81.4500 125 4 13.7275 81.2424 127 922 80 1002 5 327
1990124N09088 1990 27 NI BB NOT_NAMED 1990-05-08 12:00:00 NR 14.0000 81.2000 127 920 newdelhi main 99 92 O___O_________ jtwc_io IO021990 14.1000 81.3000 125 4 13.9000 81.1000 127 920 6.50000 80 1000 6 329
1990124N09088 1990 27 NI BB NOT_NAMED 1990-05-08 15:00:00 NR 14.2463 81.0488 main 87 86 P___P_________ IO021990 14.3150 81.1850 120 4 14.1775 80.9127 114 935 65 1001 6 334
1990124N09088 1990 27 NI BB NOT_NAMED 1990-05-08 18:00:00 NR 14.5000 80.9500 102 950 newdelhi main 86 75 O___O_________ jtwc_io IO021990 14.5000 81.1000 115 4 14.5000 80.8000 102 950 5.50000 51 1002 5 350
1990124N09088 1990 27 NI BB NOT_NAMED 1990-05-08 21:00:00 NR 14.7650 80.9599 main 88 79 P___P_________ IO021990 14.7075 81.0350 115 4 14.8225 80.8848 96 955 45 1001 5 5
1990124N09088 1990 27 NI BB NOT_NAMED 1990-05-09 00:00:00 NR 15.0000 81.0000 90 960 newdelhi main 79 68 O___O_________ jtwc_io IO021990 14.9000 81.0000 115 4 15.1000 81.0000 90 960 5.00000 40 1000 4 4
1990124N09088 1990 27 NI BB NOT_NAMED 1990-05-09 03:00:00 NR 15.1537 80.9788 main 56 46 P___P_________ IO021990 15.0500 81.0000 112 3 15.2575 80.9576 90 960 40 1000 3 355
1990124N09088 1990 27 NI BB NOT_NAMED 1990-05-09 06:00:00 NR 15.3000 80.9500 90 960 newdelhi main 46 24 O___O_________ jtwc_io IO021990 15.2000 81.0000 110 3 15.4000 80.9000 90 960 5.00000 40 1000 4 0
1990124N09088 1990 27 NI BB NOT_NAMED 1990-05-09 09:00:00 NR 15.5250 80.9724 main 24 10 P___P_________ IO021990 15.3850 80.9650 105 3 15.6650 80.9799 90 958 40 998 5 0
1990124N09088 1990 27 NI BB NOT_NAMED 1990-05-09 12:00:00 NR 15.7500 80.9500 90 956 newdelhi main 0 0 O___O_________ jtwc_io IO021990 15.6000 80.9000 100 3 15.9000 81.0000 90 956 5.00000 40 996 4 337
1990124N09088 1990 27 NI BB NOT_NAMED 1990-05-09 15:00:00 NR 15.8963 80.8087 main 0 0 P___P_________ IO021990 15.8425 80.8224 95 2 15.9501 80.7949 77 998 5 312
1990124N09088 1990 27 NI BB NOT_NAMED 1990-05-09 18:00:00 NR 16.0500 80.6000 65 newdelhi main 0 0 O___O_________ jtwc_io IO021990 16.1000 80.7000 90 2 16.0000 80.5000 65 0.00000 1000 6 314
1990124N09088 1990 27 NI BB NOT_NAMED 1990-05-09 21:00:00 NR 16.2963 80.3788 main 0 0 P___P_________ IO021990 16.3350 80.5075 80 1 16.2575 80.2502 65 1000 7 319
1990124N09088 1990 27 NI BB NOT_NAMED 1990-05-10 00:00:00 NR 16.5500 80.1500 65 newdelhi main 0 0 O___O_________ jtwc_io IO021990 16.6000 80.3000 70 1 16.5000 80.0000 65 0.00000 1000 6 314
1990124N09088 1990 27 NI BB NOT_NAMED 1990-05-10 03:00:00 NR 16.7062 79.9423 main 0 0 P___P_________ IO021990 16.9125 80.1349 65 1 16.5000 79.7497 56 1000 5 319
1990124N09088 1990 27 NI BB NOT_NAMED 1990-05-10 06:00:00 NR 16.9571 79.7857 48 newdelhi main 0 0 O___O_________ jtwc_io IO021990 17.3000 80.0000 60 0 16.5000 79.5000 48 0.00000 1000 8 340
1990124N09088 1990 27 NI BB NOT_NAMED 1990-05-10 09:00:00 NR 17.4192 79.6735 main 0 0 P___P_________ IO021990 17.7850 79.8850 55 0 16.6876 79.2503 37 998 11 353
1990124N09088 1990 27 NI BB NOT_NAMED 1990-05-10 12:00:00 NR 18.0400 79.6400 27 newdelhi main 0 0 O___O_________ jtwc_io IO021990 18.3000 79.8000 50 0 17.0000 79.0000 27 0.00000 996 13 2
1990124N09088 1990 27 NI BB NOT_NAMED 1990-05-10 15:00:00 NR 18.7350 79.7275 main 0 0 P_____________ IO021990 18.7350 79.7275 45 0 12 3
1990124N09088 1990 27 NI BB NOT_NAMED 1990-05-10 18:00:00 NR 19.2000 79.7000 main 0 0 O_____________ jtwc_io IO021990 19.2000 79.7000 40 0 11 0
1990124N09088 1990 27 NI BB NOT_NAMED 1990-05-10 21:00:00 NR 19.7925 79.7200 main 0 0 P_____________ IO021990 19.7925 79.7200 37 0 12 5
1990124N09088 1990 27 NI BB NOT_NAMED 1990-05-11 00:00:00 NR 20.4000 79.8000 main 0 0 O_____________ jtwc_io IO021990 20.4000 79.8000 35 0 12 10
1990124N09088 1990 27 NI BB NOT_NAMED 1990-05-11 03:00:00 NR 20.9275 79.9348 main 0 0 P_____________ IO021990 20.9275 79.9348 32 -1 10 16
1990124N09088 1990 27 NI BB NOT_NAMED 1990-05-11 06:00:00 NR 21.4000 80.1000 main 0 O_____________ jtwc_io IO021990 21.4000 80.1000 30 -1 10 18

About IBTrACS Database

This database is a web-friendly format of International Best Track Archive for Climate Stewardship (IBTrACS), a global best track data archive curated by NOAA dating back to 1842.

Updated: 2021-10-27